createdAt,value
2023-05-16T00:00:35.072Z,147651.59
2023-05-16T00:01:38.164Z,147658.84
2023-05-16T00:02:40.767Z,147649.19
2023-05-16T00:03:43.313Z,147632.25
2023-05-16T00:04:46.202Z,147637.09
2023-05-16T00:05:48.389Z,147637.09
2023-05-16T00:06:50.526Z,147628.59
2023-05-16T00:07:52.770Z,147635.88
2023-05-16T00:08:54.979Z,147624.97
2023-05-16T00:09:57.223Z,147624.97
2023-05-16T00:10:59.390Z,147629.78
2023-05-16T00:12:01.518Z,147624.97
2023-05-16T00:13:03.796Z,147632.25
2023-05-16T00:14:05.999Z,147639.50
2023-05-16T00:15:12.601Z,147641.94
2023-05-16T00:16:15.205Z,147615.28
2023-05-16T00:17:17.640Z,147627.38
2023-05-16T00:18:19.950Z,147615.28
2023-05-16T00:19:22.340Z,147624.97
2023-05-16T00:20:26.995Z,147633.47
2023-05-16T00:21:29.354Z,147629.78
2023-05-16T00:22:31.582Z,147617.72
2023-05-16T00:23:33.946Z,147608.03
2023-05-16T00:24:36.258Z,147610.47
2023-05-16T00:25:38.526Z,147610.47
2023-05-16T00:26:40.731Z,147615.28
2023-05-16T00:27:42.840Z,147615.28
2023-05-16T00:28:45.014Z,147610.47
2023-05-16T00:29:47.124Z,147612.88
2023-05-16T00:30:49.372Z,147605.63
2023-05-16T00:31:51.699Z,147617.72
2023-05-16T00:32:55.737Z,147629.78
2023-05-16T00:33:59.096Z,147620.13
2023-05-16T00:35:01.272Z,147620.13
2023-05-16T00:36:03.491Z,147624.97
2023-05-16T00:37:05.840Z,147617.72
2023-05-16T00:38:07.962Z,147612.88
2023-05-16T00:39:11.648Z,147620.13
2023-05-16T00:40:14.298Z,147614.09
2023-05-16T00:41:18.192Z,147621.34
2023-05-16T00:42:21.320Z,147617.72
2023-05-16T00:43:23.535Z,147587.44
2023-05-16T00:44:26.511Z,147605.63
2023-05-16T00:45:28.803Z,147605.63
2023-05-16T00:46:31.496Z,147605.63
2023-05-16T00:47:33.855Z,147610.47
2023-05-16T00:48:36.320Z,147605.63
2023-05-16T00:49:38.804Z,147605.63
2023-05-16T00:50:41.102Z,147593.50
2023-05-16T00:51:43.348Z,147598.31
2023-05-16T00:52:45.684Z,147586.25
2023-05-16T00:53:48.132Z,147583.81
2023-05-16T00:54:51.756Z,147618.91
2023-05-16T00:55:55.535Z,147605.63
2023-05-16T00:56:58.212Z,147598.31
2023-05-16T00:58:00.381Z,147589.88
2023-05-16T00:59:03.862Z,147593.50
2023-05-16T01:00:10.656Z,147621.34
2023-05-16T01:01:13.341Z,147602.00
2023-05-16T01:02:15.901Z,147595.91
2023-05-16T01:03:18.505Z,147583.81
2023-05-16T01:04:21.287Z,147579.00
2023-05-16T01:05:24.119Z,147574.16
2023-05-16T01:06:26.720Z,147571.75
2023-05-16T01:07:28.984Z,147574.16
2023-05-16T01:08:31.130Z,147564.44
2023-05-16T01:09:33.380Z,147554.78
2023-05-16T01:11:34.616Z,147595.91
2023-05-16T01:13:01.251Z,147604.41
2023-05-16T01:14:29.284Z,147612.88
2023-05-16T01:15:47.407Z,147589.88
2023-05-16T01:17:04.630Z,147604.41
2023-05-16T01:18:15.246Z,147581.41
2023-05-16T01:19:38.824Z,147603.22
2023-05-16T01:21:08.257Z,147588.66
2023-05-16T01:22:17.197Z,147581.41
2023-05-16T01:24:03.788Z,147593.50
2023-05-16T01:25:33.107Z,147592.28
2023-05-16T01:26:36.133Z,147545.06
2023-05-16T01:27:39.134Z,147557.19
2023-05-16T01:28:42.028Z,147564.44
2023-05-16T01:29:44.250Z,147557.19
2023-05-16T01:30:46.478Z,147554.78
2023-05-16T01:31:48.771Z,147545.06
2023-05-16T01:32:51.375Z,147562.03
2023-05-16T01:33:53.646Z,147562.03
2023-05-16T01:34:55.972Z,147557.19
2023-05-16T01:36:10.843Z,147588.66
2023-05-16T01:37:30.497Z,147583.81
2023-05-16T01:38:50.151Z,147606.84
2023-05-16T01:40:07.870Z,147583.81
2023-05-16T01:41:39.187Z,147583.81
2023-05-16T01:42:43.875Z,147600.78
2023-05-16T01:43:49.720Z,147592.28
2023-05-16T01:45:12.457Z,147610.47
2023-05-16T01:46:21.192Z,147564.44
2023-05-16T01:47:27.005Z,147524.47
2023-05-16T01:48:35.641Z,147547.47
2023-05-16T01:50:14.295Z,147548.69
2023-05-16T01:51:16.907Z,147484.56
2023-05-16T01:52:50.755Z,147503.94
2023-05-16T01:53:57.607Z,147484.56
2023-05-16T01:55:00.695Z,147467.59
2023-05-16T01:56:04.538Z,147457.94
2023-05-16T01:57:08.943Z,147447.06
2023-05-16T01:58:12.449Z,147436.16
2023-05-16T01:59:15.199Z,147438.63
2023-05-16T02:00:17.429Z,147430.09
2023-05-16T02:01:19.582Z,147424.06
2023-05-16T02:02:21.820Z,147416.81
2023-05-16T02:03:24.236Z,147402.28
2023-05-16T02:04:26.706Z,147395.03
2023-05-16T02:05:29.042Z,147379.34
2023-05-16T02:06:31.666Z,147391.41
2023-05-16T02:07:34.290Z,147387.78
2023-05-16T02:08:36.472Z,147374.50
2023-05-16T02:09:38.590Z,147369.63
2023-05-16T02:10:42.654Z,147358.75
2023-05-16T02:11:44.828Z,147347.88
2023-05-16T02:12:46.979Z,147344.28
2023-05-16T02:13:49.199Z,147343.06
2023-05-16T02:14:51.368Z,147335.75
2023-05-16T02:15:53.533Z,147352.72
2023-05-16T02:16:55.802Z,147338.19
2023-05-16T02:17:58.691Z,147332.16
2023-05-16T02:19:01.185Z,147324.91
2023-05-16T02:20:07.084Z,147314.03
2023-05-16T02:21:09.424Z,147308.00
2023-05-16T02:22:11.980Z,147301.91
2023-05-16T02:23:14.291Z,147299.50
2023-05-16T02:24:16.691Z,147295.88
2023-05-16T02:25:19.115Z,147283.81
2023-05-16T02:26:21.901Z,147274.13
2023-05-16T02:27:24.028Z,147269.25
2023-05-16T02:28:26.162Z,147253.56
2023-05-16T02:29:28.290Z,147237.84
2023-05-16T02:30:30.585Z,147235.41
2023-05-16T02:31:34.776Z,147246.31
2023-05-16T02:32:37.343Z,147226.97
2023-05-16T02:33:39.739Z,147213.69
2023-05-16T02:34:42.953Z,147196.75
2023-05-16T02:35:45.129Z,147199.16
2023-05-16T02:36:47.328Z,147199.16
2023-05-16T02:37:49.507Z,147199.16
2023-05-16T02:38:52.746Z,147207.59
2023-05-16T02:39:57.690Z,147181.03
2023-05-16T02:40:59.884Z,147167.72
2023-05-16T02:42:02.036Z,147161.69
2023-05-16T02:43:04.138Z,147155.66
2023-05-16T02:44:06.268Z,147146.00
2023-05-16T02:45:08.878Z,147144.78
2023-05-16T02:46:30.894Z,147181.03
2023-05-16T02:47:33.161Z,147142.34
2023-05-16T02:48:35.330Z,147136.31
2023-05-16T02:49:37.560Z,147130.25
2023-05-16T02:50:40.576Z,147127.84
2023-05-16T02:51:42.952Z,147123.03
2023-05-16T02:52:45.082Z,147124.22
2023-05-16T02:53:47.591Z,147114.56
2023-05-16T02:55:09.413Z,147104.84
2023-05-16T02:56:11.858Z,147098.78
2023-05-16T02:57:15.730Z,147097.59
2023-05-16T02:58:19.559Z,147089.13
2023-05-16T02:59:22.179Z,147091.56
2023-05-16T03:00:24.476Z,147087.94
2023-05-16T03:01:26.798Z,147078.28
2023-05-16T03:02:29.105Z,147075.81
2023-05-16T03:03:31.662Z,147072.19
2023-05-16T03:04:34.091Z,147080.69
2023-05-16T03:05:36.381Z,147073.41
2023-05-16T03:06:38.539Z,147068.59
2023-05-16T03:07:41.233Z,147080.69
2023-05-16T03:08:43.472Z,147052.91
2023-05-16T03:09:45.676Z,147046.88
2023-05-16T03:10:47.811Z,147037.16
2023-05-16T03:11:49.959Z,147037.16
2023-05-16T03:12:55.133Z,147022.69
2023-05-16T03:14:01.527Z,147032.34
2023-05-16T03:15:04.830Z,147037.16
2023-05-16T03:16:07.206Z,147035.97
2023-05-16T03:17:11.108Z,147029.94
2023-05-16T03:18:13.319Z,147015.44
2023-05-16T03:19:15.718Z,147016.66
2023-05-16T03:20:18.036Z,147021.47
2023-05-16T03:21:20.174Z,147019.06
2023-05-16T03:22:22.485Z,147020.28
2023-05-16T03:23:24.805Z,147022.69
2023-05-16T03:24:27.128Z,147023.91
2023-05-16T03:25:29.682Z,147023.91
2023-05-16T03:26:32.062Z,147013.03
2023-05-16T03:27:34.246Z,146999.72
2023-05-16T03:28:37.278Z,147015.44
2023-05-16T03:29:39.393Z,146991.28
2023-05-16T03:30:41.944Z,146993.69
2023-05-16T03:31:44.114Z,146981.63
2023-05-16T03:32:46.635Z,146984.03
2023-05-16T03:33:48.812Z,146988.88
2023-05-16T03:34:51.001Z,146981.63
2023-05-16T03:35:53.212Z,146986.44
2023-05-16T03:36:55.649Z,146984.03
2023-05-16T03:37:58.019Z,146986.44
2023-05-16T03:39:00.209Z,146981.63
2023-05-16T03:40:05.491Z,146994.91
2023-05-16T03:41:07.627Z,146990.06
2023-05-16T03:42:10.139Z,146993.69
2023-05-16T03:43:12.306Z,146991.28
2023-05-16T03:44:14.457Z,146988.88
2023-05-16T03:45:16.681Z,146987.66
2023-05-16T03:46:19.070Z,146982.84
2023-05-16T03:47:21.475Z,146988.88
2023-05-16T03:48:23.700Z,146985.25
2023-05-16T03:49:28.519Z,146996.09
2023-05-16T03:50:30.764Z,146980.41
2023-05-16T03:51:33.297Z,146984.03
2023-05-16T03:52:35.863Z,146976.75
2023-05-16T03:53:38.011Z,146964.69
2023-05-16T03:54:40.174Z,146959.88
2023-05-16T03:55:42.355Z,146950.22
2023-05-16T03:56:44.481Z,146959.88
2023-05-16T03:57:47.867Z,146967.09
2023-05-16T03:58:50.013Z,146950.22
2023-05-16T03:59:52.189Z,146952.63
2023-05-16T04:00:54.339Z,146959.88
2023-05-16T04:01:56.642Z,146955.03
2023-05-16T04:02:58.931Z,146940.53
2023-05-16T04:04:01.290Z,146938.09
2023-05-16T04:05:03.670Z,146940.53
2023-05-16T04:06:07.372Z,146975.56
2023-05-16T04:07:09.665Z,146969.50
2023-05-16T04:08:11.971Z,146973.13
2023-05-16T04:09:14.140Z,146990.06
2023-05-16T04:10:16.376Z,146991.28
2023-05-16T04:11:18.686Z,146994.91
2023-05-16T04:12:20.861Z,146996.09
2023-05-16T04:13:23.185Z,146981.63
2023-05-16T04:14:25.501Z,146979.16
2023-05-16T04:15:27.989Z,146974.34
2023-05-16T04:16:30.501Z,146976.75
2023-05-16T04:17:33.320Z,146981.63
2023-05-16T04:18:35.659Z,146990.06
2023-05-16T04:19:37.779Z,146981.63
2023-05-16T04:20:39.960Z,146976.75
2023-05-16T04:21:42.217Z,146982.84
2023-05-16T04:22:44.387Z,146990.06
2023-05-16T04:23:46.560Z,146984.03
2023-05-16T04:24:49.254Z,146979.16
2023-05-16T04:25:51.421Z,146982.84
2023-05-16T04:26:53.593Z,146988.88
2023-05-16T04:27:55.999Z,146991.28
2023-05-16T04:29:00.081Z,146991.28
2023-05-16T04:30:02.557Z,147000.94
2023-05-16T04:31:04.730Z,146993.69
2023-05-16T04:32:07.812Z,147002.13
2023-05-16T04:33:09.996Z,147013.03
2023-05-16T04:34:13.128Z,147020.28
2023-05-16T04:35:15.298Z,147025.09
2023-05-16T04:36:17.569Z,147025.09
2023-05-16T04:37:19.865Z,147025.09
2023-05-16T04:38:22.554Z,147022.69
2023-05-16T04:39:24.760Z,147020.28
2023-05-16T04:40:27.836Z,147014.25
2023-05-16T04:41:30.426Z,147015.44
2023-05-16T04:42:32.640Z,147015.44
2023-05-16T04:43:35.160Z,147027.50
2023-05-16T04:44:37.501Z,147034.75
2023-05-16T04:45:39.665Z,147039.56
2023-05-16T04:46:41.929Z,147044.41
2023-05-16T04:47:44.227Z,147042.00
2023-05-16T04:48:46.476Z,147052.91
2023-05-16T04:49:48.590Z,147049.28
2023-05-16T04:50:51.241Z,147051.69
2023-05-16T04:51:53.384Z,147056.53
2023-05-16T04:52:56.556Z,147064.97
2023-05-16T04:53:58.800Z,147071.00
2023-05-16T04:55:01.207Z,147073.41
2023-05-16T04:56:05.783Z,147083.09
2023-05-16T04:57:07.990Z,147077.03
2023-05-16T04:58:10.303Z,147083.09
2023-05-16T04:59:12.586Z,147100.00
2023-05-16T05:00:16.322Z,147109.69
2023-05-16T05:01:18.597Z,147102.41
2023-05-16T05:02:20.818Z,147098.78
2023-05-16T05:03:23.048Z,147107.28
2023-05-16T05:04:25.207Z,147109.69
2023-05-16T05:05:27.744Z,147121.81
2023-05-16T05:06:30.162Z,147126.66
2023-05-16T05:07:35.750Z,147174.97
2023-05-16T05:08:38.234Z,147146.00
2023-05-16T05:09:40.650Z,147160.47
2023-05-16T05:10:42.813Z,147164.09
2023-05-16T05:11:45.322Z,147174.97
2023-05-16T05:12:47.488Z,147179.84
2023-05-16T05:13:51.969Z,147194.31
2023-05-16T05:14:55.195Z,147210.06
2023-05-16T05:15:57.445Z,147217.31
2023-05-16T05:16:59.698Z,147231.78
2023-05-16T05:18:02.090Z,147217.31
2023-05-16T05:19:06.902Z,147228.16
2023-05-16T05:20:10.504Z,147242.72
2023-05-16T05:21:12.725Z,147254.78
2023-05-16T05:22:15.259Z,147271.69
2023-05-16T05:23:17.447Z,147247.53
2023-05-16T05:24:19.731Z,147254.78
2023-05-16T05:25:22.221Z,147269.25
2023-05-16T05:26:26.198Z,147274.13
2023-05-16T05:27:28.703Z,147294.66
2023-05-16T05:28:30.877Z,147301.91
2023-05-16T05:29:33.042Z,147306.78
2023-05-16T05:30:35.181Z,147320.06
2023-05-16T05:31:37.355Z,147320.06
2023-05-16T05:32:39.601Z,147329.72
2023-05-16T05:33:42.476Z,147349.09
2023-05-16T05:34:44.615Z,147359.97
2023-05-16T05:35:46.742Z,147369.63
2023-05-16T05:36:49.166Z,147373.28
2023-05-16T05:37:52.078Z,147382.97
2023-05-16T05:38:54.436Z,147387.78
2023-05-16T05:39:56.863Z,147382.97
2023-05-16T05:40:59.003Z,147378.13
2023-05-16T05:42:03.606Z,147387.78
2023-05-16T05:43:05.860Z,147390.19
2023-05-16T05:44:08.002Z,147425.28
2023-05-16T05:45:10.642Z,147433.72
2023-05-16T05:46:12.895Z,147447.06
2023-05-16T05:47:15.519Z,147465.19
2023-05-16T05:48:17.732Z,147465.19
2023-05-16T05:49:20.040Z,147466.41
2023-05-16T05:50:22.327Z,147463.97
2023-05-16T05:51:25.810Z,147479.72
2023-05-16T05:52:28.434Z,147494.22
2023-05-16T05:53:30.675Z,147513.59
2023-05-16T05:54:33.436Z,147542.66
2023-05-16T05:55:35.827Z,147562.03
2023-05-16T05:56:37.982Z,147579.00
2023-05-16T05:57:40.133Z,147603.22
2023-05-16T05:58:42.480Z,147641.94
2023-05-16T05:59:44.722Z,147708.50
2023-05-16T06:00:47.069Z,147756.91
2023-05-16T06:01:52.773Z,147810.19
2023-05-16T06:02:55.694Z,147855.00
2023-05-16T06:03:59.268Z,147898.63
2023-05-16T06:05:03.058Z,147965.28
2023-05-16T06:06:05.883Z,148076.75
2023-05-16T06:07:08.290Z,148193.13
2023-05-16T06:08:10.984Z,148271.97
2023-05-16T06:09:16.318Z,148373.81
2023-05-16T06:10:18.523Z,143005.22
2023-05-16T06:11:21.546Z,148575.25
2023-05-16T06:12:23.668Z,148711.22
2023-05-16T06:13:25.879Z,148769.47
2023-05-16T06:14:28.184Z,148870.28
2023-05-16T06:15:30.696Z,148870.28
2023-05-16T06:16:32.958Z,148856.94
2023-05-16T06:17:35.197Z,148864.22
2023-05-16T06:18:37.476Z,148808.31
2023-05-16T06:19:39.665Z,148746.41
2023-05-16T06:20:41.824Z,148709.97
2023-05-16T06:21:44.151Z,148716.06
2023-05-16T06:22:46.329Z,148631.06
2023-05-16T06:23:48.462Z,148711.22
2023-05-16T06:24:50.729Z,148621.38
2023-05-16T06:25:52.951Z,148742.75
2023-05-16T06:26:55.117Z,148839.94
2023-05-16T06:27:57.371Z,148939.56
2023-05-16T06:28:59.491Z,148878.81
2023-05-16T06:30:01.849Z,148869.06
2023-05-16T06:31:04.094Z,148893.38
2023-05-16T06:32:06.630Z,148866.66
2023-05-16T06:33:08.909Z,148922.53
2023-05-16T06:34:11.278Z,148915.25
2023-05-16T06:35:13.462Z,148916.47
2023-05-16T06:36:15.804Z,148982.06
2023-05-16T06:37:18.009Z,148960.19
2023-05-16T06:38:20.142Z,148816.84
2023-05-16T06:39:22.343Z,148599.53
2023-05-16T06:40:24.770Z,148525.47
2023-05-16T06:41:26.963Z,148493.91
2023-05-16T06:42:29.138Z,148469.66
2023-05-16T06:43:31.327Z,148467.22
2023-05-16T06:44:33.594Z,148462.38
2023-05-16T06:45:35.782Z,148427.19
2023-05-16T06:46:38.311Z,148296.22
2023-05-16T06:47:40.604Z,148303.47
2023-05-16T06:48:42.802Z,148242.81
2023-05-16T06:49:45.019Z,148231.91
2023-05-16T06:50:48.903Z,148190.69
2023-05-16T06:51:51.146Z,148258.63
2023-05-16T06:52:53.351Z,148393.25
2023-05-16T06:53:55.524Z,148603.16
2023-05-16T06:54:57.699Z,148740.31
2023-05-16T06:55:59.997Z,148711.22
2023-05-16T06:57:03.529Z,148635.94
2023-05-16T06:58:05.769Z,148614.13
2023-05-16T06:59:08.049Z,148608.00
2023-05-16T07:00:10.658Z,148618.97
2023-05-16T07:01:13.104Z,148694.19
2023-05-16T07:02:15.350Z,148645.66
2023-05-16T07:03:17.701Z,148678.44
2023-05-16T07:04:19.989Z,148614.13
2023-05-16T07:05:22.198Z,148541.22
2023-05-16T07:06:24.408Z,148501.19
2023-05-16T07:07:26.625Z,148495.13
2023-05-16T07:08:28.887Z,148483.03
2023-05-16T07:09:31.336Z,148434.47
2023-05-16T07:10:33.517Z,148594.69
2023-05-16T07:11:35.748Z,148757.34
2023-05-16T07:12:38.512Z,148740.31
2023-05-16T07:13:40.822Z,148895.81
2023-05-16T07:14:43.639Z,149078.06
2023-05-16T07:15:45.823Z,149228.78
2023-05-16T07:16:48.096Z,149275.00
2023-05-16T07:17:51.037Z,149337.06
2023-05-16T07:18:53.295Z,149389.31
2023-05-16T07:19:55.593Z,149484.19
2023-05-16T07:20:57.985Z,149581.56
2023-05-16T07:22:00.201Z,149596.19
2023-05-16T07:23:02.383Z,149681.34
2023-05-16T07:24:04.946Z,149703.25
2023-05-16T07:25:12.474Z,149444.06
2023-05-16T07:26:14.773Z,149481.75
2023-05-16T07:27:16.976Z,149637.53
2023-05-16T07:28:19.283Z,149815.28
2023-05-16T07:29:21.466Z,149990.69
2023-05-16T07:30:23.754Z,149963.84
2023-05-16T07:31:25.989Z,150056.47
2023-05-16T07:32:28.498Z,150162.44
2023-05-16T07:33:30.757Z,149995.56
2023-05-16T07:34:32.893Z,149895.66
2023-05-16T07:35:35.153Z,149730.03
2023-05-16T07:36:37.432Z,149459.84
2023-05-16T07:37:42.468Z,149311.47
2023-05-16T07:38:45.228Z,149307.81
2023-05-16T07:39:47.516Z,149279.84
2023-05-16T07:40:49.809Z,149238.53
2023-05-16T07:41:52.135Z,149014.88
2023-05-16T07:42:54.276Z,148826.53
2023-05-16T07:43:56.483Z,148716.06
2023-05-16T07:44:58.694Z,148669.91
2023-05-16T07:46:02.080Z,148533.94
2023-05-16T07:47:04.446Z,148472.06
2023-05-16T07:48:06.703Z,148382.28
2023-05-16T07:49:08.914Z,148462.38
2023-05-16T07:50:11.309Z,148563.13
2023-05-16T07:51:13.563Z,148788.91
2023-05-16T07:52:15.922Z,148995.41
2023-05-16T07:53:18.124Z,149123.03
2023-05-16T07:54:20.425Z,149347.97
2023-05-16T07:55:22.653Z,149598.63
2023-05-16T07:56:24.998Z,149766.56
2023-05-16T07:57:27.566Z,149795.81
2023-05-16T07:58:29.998Z,149829.91
2023-05-16T07:59:32.285Z,149626.56
2023-05-16T08:00:34.511Z,149490.25
2023-05-16T08:01:37.478Z,149545.03
2023-05-16T08:02:39.975Z,149739.78
2023-05-16T08:03:42.394Z,149846.94
2023-05-16T08:04:44.692Z,150061.34
2023-05-16T08:05:48.897Z,150008.94
2023-05-16T08:06:51.135Z,150095.44
2023-05-16T08:07:53.330Z,149938.25
2023-05-16T08:08:56.046Z,150010.16
2023-05-16T08:09:58.227Z,149924.88
2023-05-16T08:11:00.376Z,149950.44
2023-05-16T08:12:03.824Z,149882.25
2023-05-16T08:13:06.427Z,149807.97
2023-05-16T08:14:08.601Z,149768.97
2023-05-16T08:15:11.218Z,149615.63
2023-05-16T08:16:13.453Z,149510.97
2023-05-16T08:17:15.914Z,149536.50
2023-05-16T08:18:20.051Z,149452.56
2023-05-16T08:19:24.463Z,149436.78
2023-05-16T08:20:27.026Z,149639.97
2023-05-16T08:21:30.802Z,149700.84
2023-05-16T08:22:33.527Z,149812.84
2023-05-16T08:23:36.357Z,149987.00
2023-05-16T08:24:38.774Z,150112.47
2023-05-16T08:25:41.038Z,150001.63
2023-05-16T08:26:43.312Z,149993.13
2023-05-16T08:27:46.535Z,149781.19
2023-05-16T08:28:49.142Z,149648.47
2023-05-16T08:29:51.339Z,149410.00
2023-05-16T08:30:53.530Z,149256.75
2023-05-16T08:31:55.761Z,149232.41
2023-05-16T08:32:58.070Z,149136.44
2023-05-16T08:34:01.753Z,149245.81
2023-05-16T08:35:04.171Z,149428.22
2023-05-16T08:36:06.687Z,149574.28
2023-05-16T08:37:08.866Z,149625.34
2023-05-16T08:38:11.275Z,149782.41
2023-05-16T08:39:13.490Z,149853.00
2023-05-16T08:40:16.293Z,149807.97
2023-05-16T08:41:18.572Z,149974.78
2023-05-16T08:42:20.966Z,150090.56
2023-05-16T08:43:23.506Z,150319.72
2023-05-16T08:44:26.491Z,150422.16
2023-05-16T08:45:30.733Z,150577.03
2023-05-16T08:46:35.842Z,150403.84
2023-05-16T08:47:41.574Z,150178.25
2023-05-16T08:48:47.024Z,150022.38
2023-05-16T08:49:51.692Z,149915.09
2023-05-16T08:50:54.079Z,149715.41
2023-05-16T08:51:59.273Z,149711.78
2023-05-16T08:53:07.162Z,149837.22
2023-05-16T08:54:13.653Z,149976.00
2023-05-16T08:55:17.055Z,149937.03
2023-05-16T08:56:22.238Z,150044.25
2023-05-16T08:57:24.670Z,150222.22
2023-05-16T08:58:28.119Z,150378.19
2023-05-16T08:59:31.526Z,150539.19
2023-05-16T09:00:33.906Z,150366.00
2023-05-16T09:01:39.416Z,150395.31
2023-05-16T09:02:43.139Z,150363.56
2023-05-16T09:03:46.247Z,150541.63
2023-05-16T09:04:49.497Z,150379.44
2023-05-16T09:05:52.643Z,150222.22
2023-05-16T09:06:54.983Z,150192.97
2023-05-16T09:07:57.227Z,150346.50
2023-05-16T09:08:59.469Z,150480.63
2023-05-16T09:10:01.712Z,150589.25
2023-05-16T09:11:04.218Z,150606.31
2023-05-16T09:12:06.745Z,150546.47
2023-05-16T09:13:08.932Z,150490.41
2023-05-16T09:14:11.469Z,150359.91
2023-05-16T09:15:13.791Z,150186.88
2023-05-16T09:16:17.969Z,150348.91
2023-05-16T09:17:28.737Z,150402.63
2023-05-16T09:18:43.127Z,150522.13
2023-05-16T09:19:45.416Z,150473.34
2023-05-16T09:20:50.093Z,150514.81
2023-05-16T09:21:52.506Z,150653.91
2023-05-16T09:22:57.107Z,150906.50
2023-05-16T09:24:09.570Z,151090.94
2023-05-16T09:26:22.018Z,150828.41
2023-05-16T09:27:24.291Z,150497.72
2023-05-16T09:28:26.612Z,150314.78
2023-05-16T09:29:29.366Z,149754.34
2023-05-16T09:30:35.160Z,149768.97
2023-05-16T09:31:38.408Z,149783.63
2023-05-16T09:32:44.973Z,149535.31
2023-05-16T09:33:48.252Z,149228.78
2023-05-16T09:34:54.179Z,148977.22
2023-05-16T09:36:00.572Z,148842.41
2023-05-16T09:37:02.815Z,148633.50
2023-05-16T09:38:05.071Z,148519.41
2023-05-16T09:39:07.850Z,148451.47
2023-05-16T09:40:10.454Z,148405.34
2023-05-16T09:41:12.754Z,148405.34
2023-05-16T09:42:16.450Z,148355.66
2023-05-16T09:43:25.640Z,148495.13
2023-05-16T09:44:28.326Z,148553.38
2023-05-16T09:45:32.011Z,148689.34
2023-05-16T09:46:36.411Z,148968.66
2023-05-16T09:47:46.412Z,149239.75
2023-05-16T09:48:49.374Z,149554.75
2023-05-16T09:49:53.633Z,149937.03
2023-05-16T09:50:56.989Z,150057.69
2023-05-16T09:52:05.150Z,150353.84
2023-05-16T09:53:07.954Z,150324.56
2023-05-16T09:54:10.699Z,150317.28
2023-05-16T09:55:13.312Z,150322.13
2023-05-16T09:56:16.870Z,150467.25
2023-05-16T09:57:23.633Z,150492.84
2023-05-16T09:58:30.280Z,150441.63
2023-05-16T09:59:39.725Z,150653.91
2023-05-16T10:00:42.086Z,150624.63
2023-05-16T10:01:45.194Z,150786.91
2023-05-16T10:02:49.743Z,150727.09
2023-05-16T10:03:52.481Z,150888.22
2023-05-16T10:04:55.330Z,150824.75
2023-05-16T10:05:57.993Z,150753.97
2023-05-16T10:07:03.302Z,150507.47
2023-05-16T10:08:06.488Z,150461.16
2023-05-16T10:09:11.903Z,150611.16
2023-05-16T10:10:15.069Z,150490.41
2023-05-16T10:11:19.091Z,150459.94
2023-05-16T10:12:28.306Z,150553.84
2023-05-16T10:13:33.845Z,150741.69
2023-05-16T10:14:37.880Z,150829.63
2023-05-16T10:15:41.167Z,150857.69
2023-05-16T10:16:47.147Z,150877.25
2023-05-16T10:17:54.978Z,150891.88
2023-05-16T10:18:57.904Z,150429.44
2023-05-16T10:20:05.778Z,150107.59
2023-05-16T10:21:11.984Z,150018.66
2023-05-16T10:22:16.647Z,149851.78
2023-05-16T10:23:20.601Z,149615.63
2023-05-16T10:24:32.655Z,149374.75
2023-05-16T10:25:41.133Z,149264.03
2023-05-16T10:26:43.548Z,149243.38
2023-05-16T10:27:47.424Z,149098.72
2023-05-16T10:28:51.042Z,148971.09
2023-05-16T10:29:55.026Z,148889.75
2023-05-16T10:30:57.941Z,148818.06
2023-05-16T10:32:00.607Z,148793.75
2023-05-16T10:33:04.406Z,148769.47
2023-05-16T10:34:07.190Z,148776.78
2023-05-16T10:35:10.752Z,148821.69
2023-05-16T10:36:13.943Z,148876.41
2023-05-16T10:37:16.123Z,149085.31
2023-05-16T10:38:21.224Z,149333.41
2023-05-16T10:39:24.295Z,149590.06
2023-05-16T10:40:28.586Z,149892.00
2023-05-16T10:41:31.638Z,150083.22
2023-05-16T10:42:34.184Z,150183.13
2023-05-16T10:43:36.810Z,150127.13
2023-05-16T10:44:39.335Z,150080.78
2023-05-16T10:45:44.409Z,150114.91
2023-05-16T10:46:49.549Z,150314.78
2023-05-16T10:47:55.807Z,150336.75
2023-05-16T10:48:58.829Z,150305.06
2023-05-16T10:50:03.663Z,150103.94
2023-05-16T10:51:38.794Z,150055.25
2023-05-16T10:52:41.054Z,149956.56
2023-05-16T10:53:44.060Z,149901.72
2023-05-16T10:54:52.241Z,149708.13
2023-05-16T10:56:00.873Z,149535.31
2023-05-16T10:57:12.061Z,149452.56
2023-05-16T10:58:19.255Z,149446.50
2023-05-16T10:59:26.135Z,149390.53
2023-05-16T11:00:30.943Z,149209.34
2023-05-16T11:01:34.746Z,149079.25
2023-05-16T11:02:41.701Z,149010.00
2023-05-16T11:04:00.015Z,148839.94
2023-05-16T11:05:03.068Z,148665.06
2023-05-16T11:06:06.187Z,148559.50
2023-05-16T11:07:08.774Z,148495.13
2023-05-16T11:08:11.660Z,148407.78
2023-05-16T11:09:14.074Z,148368.97
2023-05-16T11:10:17.052Z,148574.03
2023-05-16T11:11:53.509Z,147137.44
2023-05-16T11:13:03.461Z,149221.50
2023-05-16T11:14:05.826Z,149418.50
2023-05-16T11:15:26.606Z,149820.13
2023-05-16T11:16:32.310Z,149929.75
2023-05-16T11:17:41.114Z,150195.38
2023-05-16T11:18:50.858Z,150409.94
2023-05-16T11:20:01.014Z,150483.13
2023-05-16T11:21:04.424Z,150496.50
2023-05-16T11:22:19.467Z,150551.41
2023-05-16T11:23:23.789Z,150566.06
2023-05-16T11:24:30.941Z,150630.69
2023-05-16T11:25:42.247Z,150758.84
2023-05-16T11:26:44.475Z,150886.97
2023-05-16T11:27:48.155Z,150949.28
2023-05-16T11:28:50.776Z,151010.34
2023-05-16T11:29:54.518Z,150839.38
2023-05-16T11:30:59.925Z,150609.94
2023-05-16T11:32:04.968Z,150464.81
2023-05-16T11:33:07.459Z,150149.00
2023-05-16T11:34:09.975Z,149881.03
2023-05-16T11:35:14.928Z,149747.06
2023-05-16T11:36:17.360Z,149569.41
2023-05-16T11:37:20.245Z,149481.75
2023-05-16T11:38:22.493Z,149411.22
2023-05-16T11:39:25.316Z,149292.00
2023-05-16T11:40:27.564Z,149228.78
2023-05-16T11:41:30.340Z,149090.19
2023-05-16T11:42:35.375Z,148786.47
2023-05-16T11:43:40.623Z,148559.50
2023-05-16T11:44:42.923Z,148406.56
2023-05-16T11:45:45.848Z,148371.38
2023-05-16T11:46:48.127Z,144687.97
2023-05-16T11:47:50.685Z,141000.19
2023-05-16T11:48:53.168Z,134045.47
2023-05-16T11:49:58.471Z,148762.19
2023-05-16T11:51:01.023Z,148771.88
2023-05-16T11:52:04.338Z,148801.03
2023-05-16T11:53:09.045Z,148742.75
2023-05-16T11:54:12.955Z,148739.09
2023-05-16T11:55:28.097Z,148711.22
2023-05-16T11:56:32.351Z,148728.19
2023-05-16T11:57:34.656Z,148667.50
2023-05-16T11:58:38.523Z,148719.69
2023-05-16T11:59:41.527Z,148740.31
2023-05-16T12:00:51.370Z,148780.41
2023-05-16T12:01:54.710Z,148764.59
2023-05-16T12:03:03.227Z,148765.81
2023-05-16T12:04:13.760Z,148757.34
2023-05-16T12:05:18.030Z,148723.34
2023-05-16T12:06:20.594Z,148713.66
2023-05-16T12:07:28.519Z,148850.88
2023-05-16T12:08:31.305Z,148995.41
2023-05-16T12:09:33.518Z,149185.03
2023-05-16T12:10:35.718Z,149268.94
2023-05-16T12:11:42.368Z,149295.63